Time;durP1;ratioP1;P1;durP2;ratioP2;P2;SDS_P1;SDS_P2;PMS_P1;PMS_P2;Temp;Humidity;BMP_temperature;BMP_pressure;BME280_temperature;BME280_humidity;BME280_pressure;Samples;Min_cycle;Max_cycle;Signal;HPM_P1;HPM_P2
2022/03/25 00:02:15;;;;;;;;;;;4.20;99.90;;;;;;5094215;28;19924;-59
2022/03/25 00:04:41;;;;;;;;;;;4.20;99.90;;;;;;5094443;28;20378;-60
2022/03/25 00:07:07;;;;;;;;;;;4.20;99.90;;;;;;5092993;28;19928;-60
2022/03/25 00:09:33;;;;;;;;;;;4.20;99.90;;;;;;5092770;28;19924;-59
2022/03/25 00:11:59;;;;;;;;;;;4.20;99.90;;;;;;5110932;28;20068;-60
2022/03/25 00:14:24;;;;;;;;;;;4.20;99.90;;;;;;5113604;28;20425;-59
2022/03/25 00:16:50;;;;;;;;;;;4.30;99.90;;;;;;5096048;28;20401;-60
2022/03/25 00:19:16;;;;;;;;;;;4.30;99.90;;;;;;5093189;28;19975;-60
2022/03/25 00:21:41;;;;;;;;;;;4.30;99.90;;;;;;5093902;28;19968;-59
2022/03/25 00:24:08;;;;;;;;;;;4.30;99.90;;;;;;5093433;28;19931;-60
2022/03/25 00:26:34;;;;;;;;;;;4.30;99.90;;;;;;5093289;28;19931;-59
2022/03/25 00:29:00;;;;;;;;;;;4.30;99.90;;;;;;5092579;28;20022;-60
2022/03/25 00:31:26;;;;;;;;;;;4.30;99.90;;;;;;5092506;28;19974;-60
2022/03/25 00:33:52;;;;;;;;;;;4.30;99.90;;;;;;5086861;28;19935;-59
2022/03/25 00:36:18;;;;;;;;;;;4.20;99.90;;;;;;5093915;28;19928;-59
2022/03/25 00:38:45;;;;;;;;;;;4.20;99.90;;;;;;5093609;28;19924;-59
2022/03/25 00:41:12;;;;;;;;;;;4.10;99.90;;;;;;5091806;28;20323;-59
2022/03/25 00:43:38;;;;;;;;;;;4.00;99.90;;;;;;5092200;28;20003;-59
2022/03/25 00:46:05;;;;;;;;;;;4.00;99.90;;;;;;5093585;28;19927;-60
2022/03/25 00:48:32;;;;;;;;;;;3.90;99.90;;;;;;5092760;28;19925;-60
2022/03/25 00:50:58;;;;;;;;;;;3.90;99.90;;;;;;5092319;28;20289;-59
2022/03/25 00:53:25;;;;;;;;;;;3.90;99.90;;;;;;5092175;28;20026;-60
2022/03/25 00:55:51;;;;;;;;;;;3.80;99.90;;;;;;5092882;28;19925;-60
2022/03/25 00:58:18;;;;;;;;;;;3.80;99.90;;;;;;5093484;28;20044;-59
2022/03/25 01:00:44;;;;;;;;;;;3.80;99.90;;;;;;5091399;28;20007;-60
2022/03/25 01:03:11;;;;;;;;;;;3.90;99.90;;;;;;5091246;28;19928;-60
2022/03/25 01:05:37;;;;;;;;;;;3.80;99.90;;;;;;5093302;28;20398;-60
2022/03/25 01:08:04;;;;;;;;;;;3.80;99.90;;;;;;5091707;28;19978;-59
2022/03/25 01:10:31;;;;;;;;;;;3.80;99.90;;;;;;5095026;28;19973;-59
2022/03/25 01:12:57;;;;;;;;;;;3.80;99.90;;;;;;5113552;28;19924;-59
2022/03/25 01:15:22;;;;;;;;;;;3.80;99.90;;;;;;5106438;28;19928;-60
2022/03/25 01:17:48;;;;;;;;;;;3.80;99.90;;;;;;5092262;28;19977;-60
2022/03/25 01:20:14;;;;;;;;;;;3.80;99.90;;;;;;5093369;28;19969;-59
2022/03/25 01:22:41;;;;;;;;;;;3.80;99.90;;;;;;5092380;28;19927;-59
2022/03/25 01:25:08;;;;;;;;;;;3.70;99.90;;;;;;5092074;28;19924;-60
2022/03/25 01:27:34;;;;;;;;;;;3.60;99.90;;;;;;5091525;28;20041;-59
2022/03/25 01:29:59;;;;;;;;;;;3.50;99.90;;;;;;5092141;28;19924;-60
2022/03/25 01:32:25;;;;;;;;;;;3.40;99.90;;;;;;5088959;28;19932;-59
2022/03/25 01:34:51;;;;;;;;;;;3.40;99.90;;;;;;5072472;28;19928;-59
2022/03/25 01:37:17;;;;;;;;;;;3.40;99.90;;;;;;5092146;28;19924;-59
2022/03/25 01:39:42;;;;;;;;;;;3.40;99.90;;;;;;5093117;28;19928;-59
2022/03/25 01:42:08;;;;;;;;;;;3.50;99.90;;;;;;5091822;28;20301;-60
2022/03/25 01:44:34;;;;;;;;;;;3.50;99.90;;;;;;5091727;28;19967;-60
2022/03/25 01:47:02;;;;;;;;;;;3.50;99.90;;;;;;5082650;28;19928;-60
2022/03/25 01:49:27;;;;;;;;;;;3.60;99.90;;;;;;5081619;28;19924;-59
2022/03/25 01:51:54;;;;;;;;;;;3.60;99.90;;;;;;5081986;28;19924;-59
2022/03/25 01:54:22;;;;;;;;;;;3.60;99.90;;;;;;5085101;28;19975;-60
2022/03/25 01:56:51;;;;;;;;;;;3.60;99.90;;;;;;5079535;28;19925;-60
2022/03/25 01:59:16;;;;;;;;;;;3.60;99.90;;;;;;5087141;28;19925;-59
2022/03/25 02:01:42;;;;;;;;;;;3.60;99.90;;;;;;5092217;28;19928;-59
2022/03/25 02:04:08;;;;;;;;;;;3.60;99.90;;;;;;5092969;28;19932;-59
2022/03/25 02:06:34;;;;;;;;;;;3.60;99.90;;;;;;5090418;28;20363;-59
2022/03/25 02:09:00;;;;;;;;;;;3.50;99.90;;;;;;5092845;28;19924;-60
2022/03/25 02:11:26;;;;;;;;;;;3.40;99.90;;;;;;5092379;28;20565;-59
2022/03/25 02:13:52;;;;;;;;;;;3.40;99.90;;;;;;5090291;28;19935;-60
2022/03/25 02:16:18;;;;;;;;;;;3.30;99.90;;;;;;5104425;28;19928;-60
2022/03/25 02:18:43;;;;;;;;;;;3.10;99.90;;;;;;5096950;28;19924;-59
2022/03/25 02:21:09;;;;;;;;;;;2.90;99.90;;;;;;5095844;28;20052;-60
2022/03/25 02:23:36;;;;;;;;;;;2.90;99.90;;;;;;5078049;28;19932;-59
2022/03/25 02:26:02;;;;;;;;;;;2.80;99.90;;;;;;5095747;28;19928;-59
2022/03/25 02:28:28;;;;;;;;;;;2.80;99.90;;;;;;5094513;28;19924;-60
2022/03/25 02:30:57;;;;;;;;;;;2.80;99.90;;;;;;5094909;28;20018;-60
2022/03/25 02:33:22;;;;;;;;;;;2.80;99.90;;;;;;5083481;28;20032;-59
2022/03/25 02:35:49;;;;;;;;;;;2.80;99.90;;;;;;5074565;28;19924;-59
2022/03/25 02:38:17;;;;;;;;;;;2.90;99.90;;;;;;5087456;28;20343;-59
2022/03/25 02:40:42;;;;;;;;;;;2.90;99.90;;;;;;5110947;28;19928;-59
2022/03/25 02:43:09;;;;;;;;;;;3.00;99.90;;;;;;5094286;28;19993;-59
2022/03/25 02:45:40;;;;;;;;;;;3.00;99.90;;;;;;5094508;28;19920;-59
2022/03/25 02:48:07;;;;;;;;;;;3.00;99.90;;;;;;5094133;28;19931;-59
2022/03/25 02:50:33;;;;;;;;;;;3.00;99.90;;;;;;5111373;28;20298;-59
2022/03/25 02:52:59;;;;;;;;;;;2.90;99.90;;;;;;5095944;28;19924;-59
2022/03/25 02:55:25;;;;;;;;;;;2.80;99.90;;;;;;5094761;28;19928;-60
2022/03/25 02:57:52;;;;;;;;;;;2.70;99.90;;;;;;5094954;28;20401;-59
2022/03/25 03:00:19;;;;;;;;;;;2.70;99.90;;;;;;5095402;28;20374;-60
2022/03/25 03:02:45;;;;;;;;;;;2.70;99.90;;;;;;5094910;28;20298;-59
2022/03/25 03:05:11;;;;;;;;;;;2.60;99.90;;;;;;5094839;28;19924;-59
2022/03/25 03:07:37;;;;;;;;;;;2.60;99.90;;;;;;5095466;28;19931;-60
2022/03/25 03:10:04;;;;;;;;;;;2.60;99.90;;;;;;5094816;28;19961;-59
2022/03/25 03:12:32;;;;;;;;;;;2.50;99.90;;;;;;5110637;28;21306;-59
2022/03/25 03:15:00;;;;;;;;;;;2.50;99.90;;;;;;5097175;28;20300;-59
2022/03/25 03:17:25;;;;;;;;;;;2.40;99.90;;;;;;5114872;28;19924;-59
2022/03/25 03:19:51;;;;;;;;;;;2.40;99.90;;;;;;5115412;28;20301;-59
2022/03/25 03:22:17;;;;;;;;;;;2.30;99.90;;;;;;5101643;28;19969;-59
2022/03/25 03:24:43;;;;;;;;;;;2.30;99.90;;;;;;5095378;28;20019;-59
2022/03/25 03:27:10;;;;;;;;;;;2.30;99.90;;;;;;5094715;28;19964;-59
2022/03/25 03:29:36;;;;;;;;;;;2.40;99.90;;;;;;5092951;28;19924;-59
2022/03/25 03:32:02;;;;;;;;;;;2.40;99.90;;;;;;5094805;28;19928;-59
2022/03/25 03:34:28;;;;;;;;;;;2.40;99.90;;;;;;5074539;28;20298;-59
2022/03/25 03:36:54;;;;;;;;;;;2.30;99.90;;;;;;5074024;28;19924;-59
2022/03/25 03:39:19;;;;;;;;;;;2.20;99.90;;;;;;5080248;28;19924;-59
2022/03/25 03:41:45;;;;;;;;;;;2.20;99.90;;;;;;5089075;28;19947;-59
2022/03/25 03:44:11;;;;;;;;;;;2.20;99.90;;;;;;5082945;28;19932;-59
2022/03/25 03:46:36;;;;;;;;;;;2.20;99.90;;;;;;5078979;28;20006;-59
2022/03/25 03:49:02;;;;;;;;;;;2.20;99.90;;;;;;5086951;28;19928;-59
2022/03/25 03:51:28;;;;;;;;;;;2.10;99.90;;;;;;5093763;28;19985;-59
2022/03/25 03:53:54;;;;;;;;;;;2.00;99.90;;;;;;5094319;28;19924;-59
2022/03/25 03:56:19;;;;;;;;;;;2.00;99.90;;;;;;5094689;28;19924;-59
2022/03/25 03:58:45;;;;;;;;;;;2.00;99.90;;;;;;5093098;28;19942;-59
2022/03/25 04:01:11;;;;;;;;;;;2.00;99.90;;;;;;5093033;28;19930;-59
2022/03/25 04:03:37;;;;;;;;;;;2.00;99.90;;;;;;5094477;28;20332;-59
2022/03/25 04:06:03;;;;;;;;;;;2.10;99.90;;;;;;5091718;28;19931;-59
2022/03/25 04:08:29;;;;;;;;;;;2.00;99.90;;;;;;5094061;28;20289;-59
2022/03/25 04:10:55;;;;;;;;;;;2.10;99.90;;;;;;5101643;28;19971;-59
2022/03/25 04:13:20;;;;;;;;;;;2.10;99.90;;;;;;5112147;28;19961;-59
2022/03/25 04:15:46;;;;;;;;;;;2.10;99.90;;;;;;5108255;28;19924;-59
2022/03/25 04:18:11;;;;;;;;;;;2.10;99.90;;;;;;5114263;28;19928;-59
2022/03/25 04:20:37;;;;;;;;;;;2.00;99.90;;;;;;5113364;28;20065;-59
2022/03/25 04:23:03;;;;;;;;;;;2.00;99.90;;;;;;5101951;28;19924;-59
2022/03/25 04:25:28;;;;;;;;;;;2.00;99.90;;;;;;5083049;28;19934;-59
2022/03/25 04:27:55;;;;;;;;;;;2.00;99.90;;;;;;5082003;28;20009;-59
2022/03/25 04:30:22;;;;;;;;;;;2.00;99.90;;;;;;5083968;28;19931;-59
2022/03/25 04:32:47;;;;;;;;;;;2.10;99.90;;;;;;5082567;28;19924;-59
2022/03/25 04:35:13;;;;;;;;;;;2.10;99.90;;;;;;5081423;28;19978;-59
2022/03/25 04:37:39;;;;;;;;;;;2.00;99.90;;;;;;5078577;28;19924;-59
2022/03/25 04:40:05;;;;;;;;;;;2.10;99.90;;;;;;5083117;28;19993;-59
2022/03/25 04:42:30;;;;;;;;;;;2.00;99.90;;;;;;5089165;28;19931;-59
2022/03/25 04:44:56;;;;;;;;;;;1.90;99.90;;;;;;5093643;28;19924;-59
2022/03/25 04:47:22;;;;;;;;;;;2.00;99.90;;;;;;5092011;28;19928;-59
2022/03/25 04:49:48;;;;;;;;;;;2.00;99.90;;;;;;5093196;28;19977;-59
2022/03/25 04:52:14;;;;;;;;;;;2.00;99.90;;;;;;5093641;28;19993;-59
2022/03/25 04:54:40;;;;;;;;;;;2.00;99.90;;;;;;5092946;28;19968;-59
2022/03/25 04:57:06;;;;;;;;;;;2.00;99.90;;;;;;5093351;28;20416;-59
2022/03/25 04:59:31;;;;;;;;;;;2.00;99.90;;;;;;5093080;28;19928;-59
2022/03/25 05:01:57;;;;;;;;;;;2.00;99.90;;;;;;5092824;28;19931;-58
2022/03/25 05:04:23;;;;;;;;;;;1.90;99.90;;;;;;5092012;28;19920;-59
2022/03/25 05:06:49;;;;;;;;;;;1.80;99.90;;;;;;5093346;28;19924;-59
2022/03/25 05:09:15;;;;;;;;;;;1.80;99.90;;;;;;5092285;28;19928;-59
2022/03/25 05:11:41;;;;;;;;;;;1.80;99.90;;;;;;5107145;28;19924;-59
2022/03/25 05:14:06;;;;;;;;;;;1.80;99.90;;;;;;5112241;28;19971;-59
2022/03/25 05:16:32;;;;;;;;;;;1.90;99.90;;;;;;5097469;28;19935;-59
2022/03/25 05:18:57;;;;;;;;;;;1.90;99.90;;;;;;5092945;28;19931;-59
2022/03/25 05:21:23;;;;;;;;;;;2.00;99.90;;;;;;5092950;28;19931;-59
2022/03/25 05:23:49;;;;;;;;;;;1.90;99.90;;;;;;5092211;28;20023;-59
2022/03/25 05:26:15;;;;;;;;;;;1.90;99.90;;;;;;5092655;28;19924;-59
2022/03/25 05:28:41;;;;;;;;;;;2.00;99.90;;;;;;5091486;28;19924;-59
2022/03/25 05:31:06;;;;;;;;;;;2.00;99.90;;;;;;5092873;28;19947;-59
2022/03/25 05:33:32;;;;;;;;;;;2.10;99.90;;;;;;5080680;28;20290;-59
2022/03/25 05:35:58;;;;;;;;;;;2.10;99.90;;;;;;5091201;28;19924;-59
2022/03/25 05:38:23;;;;;;;;;;;2.10;99.90;;;;;;5108775;28;19924;-59
2022/03/25 05:40:49;;;;;;;;;;;2.20;99.90;;;;;;5092754;28;19947;-59
2022/03/25 05:43:15;;;;;;;;;;;2.10;99.90;;;;;;5091760;28;19977;-59
2022/03/25 05:45:40;;;;;;;;;;;2.10;99.90;;;;;;5093044;28;19925;-59
2022/03/25 05:48:06;;;;;;;;;;;2.10;99.90;;;;;;5092560;28;20370;-59
2022/03/25 05:50:32;;;;;;;;;;;2.20;99.90;;;;;;5092371;28;19935;-59
2022/03/25 05:52:57;;;;;;;;;;;2.20;99.90;;;;;;5093571;28;19947;-59
2022/03/25 05:55:24;;;;;;;;;;;2.20;99.90;;;;;;5096623;28;19931;-59
2022/03/25 05:57:49;;;;;;;;;;;2.30;99.90;;;;;;5095983;28;19932;-59
2022/03/25 06:00:16;;;;;;;;;;;2.30;99.90;;;;;;5096479;28;19924;-59
2022/03/25 06:02:43;;;;;;;;;;;2.50;99.90;;;;;;5112011;28;20378;-59
2022/03/25 06:05:10;;;;;;;;;;;2.60;99.90;;;;;;5096113;28;19924;-59
2022/03/25 06:07:36;;;;;;;;;;;2.70;99.90;;;;;;5095135;28;19932;-59
2022/03/25 06:10:03;;;;;;;;;;;2.70;99.90;;;;;;5090111;28;19939;-59
2022/03/25 06:12:28;;;;;;;;;;;2.70;99.90;;;;;;5088747;28;20011;-59
2022/03/25 06:14:54;;;;;;;;;;;2.80;99.90;;;;;;5087663;28;20049;-59
2022/03/25 06:17:20;;;;;;;;;;;2.90;99.90;;;;;;5085241;28;19935;-59
2022/03/25 06:19:46;;;;;;;;;;;3.00;99.90;;;;;;5086822;28;19924;-59
2022/03/25 06:22:11;;;;;;;;;;;3.10;99.90;;;;;;5090086;28;19932;-59
2022/03/25 06:24:37;;;;;;;;;;;3.20;99.90;;;;;;5078717;28;19924;-59
2022/03/25 06:27:03;;;;;;;;;;;3.30;99.90;;;;;;5076600;28;20057;-59
2022/03/25 06:29:29;;;;;;;;;;;3.30;99.90;;;;;;5089665;28;19955;-59
2022/03/25 06:31:54;;;;;;;;;;;3.40;99.90;;;;;;5078172;28;19924;-59
2022/03/25 06:34:21;;;;;;;;;;;3.50;99.90;;;;;;5086245;28;19925;-59
2022/03/25 06:36:48;;;;;;;;;;;3.60;99.90;;;;;;5086495;28;19928;-59
2022/03/25 06:39:14;;;;;;;;;;;3.70;99.90;;;;;;5082522;28;19924;-59
2022/03/25 06:41:39;;;;;;;;;;;3.80;99.90;;;;;;5080951;28;20401;-59
2022/03/25 06:44:05;;;;;;;;;;;3.90;99.90;;;;;;5074501;28;20018;-60
2022/03/25 06:46:31;;;;;;;;;;;4.00;99.90;;;;;;5091902;28;20404;-60
2022/03/25 06:48:57;;;;;;;;;;;4.20;99.90;;;;;;5095283;28;19928;-60
2022/03/25 06:51:23;;;;;;;;;;;4.30;99.90;;;;;;5095743;28;19927;-60
2022/03/25 06:53:48;;;;;;;;;;;4.40;99.90;;;;;;5094726;28;19924;-60
2022/03/25 06:56:14;;;;;;;;;;;4.50;99.90;;;;;;5095598;28;19932;-60
2022/03/25 06:58:40;;;;;;;;;;;4.60;99.90;;;;;;5095538;28;19970;-60
2022/03/25 07:01:06;;;;;;;;;;;4.80;99.90;;;;;;5093318;28;19924;-60
2022/03/25 07:03:32;;;;;;;;;;;4.90;99.90;;;;;;5094157;28;19920;-60
2022/03/25 07:06:00;;;;;;;;;;;5.00;99.90;;;;;;5095675;28;19982;-60
2022/03/25 07:08:29;;;;;;;;;;;5.20;99.90;;;;;;5094930;28;20297;-60
2022/03/25 07:10:55;;;;;;;;;;;5.40;99.90;;;;;;5102457;28;20056;-60
2022/03/25 07:13:21;;;;;;;;;;;5.70;99.90;;;;;;5095389;28;19932;-61
2022/03/25 07:15:46;;;;;;;;;;;5.90;99.90;;;;;;5103521;28;19919;-61
2022/03/25 07:18:12;;;;;;;;;;;6.00;99.90;;;;;;5115110;28;19932;-60
2022/03/25 07:20:38;;;;;;;;;;;6.30;99.90;;;;;;5108452;28;19928;-60
2022/03/25 07:23:03;;;;;;;;;;;6.60;99.90;;;;;;5094433;28;19927;-61
2022/03/25 07:25:31;;;;;;;;;;;6.90;99.90;;;;;;5093422;28;19931;-61
2022/03/25 07:27:57;;;;;;;;;;;7.10;99.90;;;;;;5093692;28;19931;-60
2022/03/25 07:30:22;;;;;;;;;;;7.30;99.90;;;;;;5075801;28;19977;-60
2022/03/25 07:32:48;;;;;;;;;;;7.60;99.90;;;;;;5088460;28;19924;-60
2022/03/25 07:35:14;;;;;;;;;;;7.80;99.90;;;;;;5074835;28;19920;-60
2022/03/25 07:37:40;;;;;;;;;;;7.90;99.90;;;;;;5074925;28;19931;-60
2022/03/25 07:40:09;;;;;;;;;;;8.20;99.90;;;;;;5093056;28;19924;-61
2022/03/25 07:42:35;;;;;;;;;;;8.30;99.90;;;;;;5094087;28;20015;-61
2022/03/25 07:45:01;;;;;;;;;;;8.40;99.90;;;;;;5093444;28;19928;-60
2022/03/25 07:47:27;;;;;;;;;;;8.50;99.90;;;;;;5092557;28;20306;-60
2022/03/25 07:49:53;;;;;;;;;;;8.70;99.90;;;;;;5075733;28;19924;-61
2022/03/25 07:52:18;;;;;;;;;;;8.80;99.90;;;;;;5094798;28;19924;-60
2022/03/25 07:54:44;;;;;;;;;;;9.00;99.90;;;;;;5094015;28;19925;-61
2022/03/25 07:57:10;;;;;;;;;;;9.10;99.90;;;;;;5085554;28;20015;-60
2022/03/25 07:59:36;;;;;;;;;;;9.30;99.90;;;;;;5085309;28;19931;-60
2022/03/25 08:02:02;;;;;;;;;;;9.40;99.90;;;;;;5085397;28;19924;-60
2022/03/25 08:04:27;;;;;;;;;;;9.50;99.90;;;;;;5093503;28;19938;-60
2022/03/25 08:06:54;;;;;;;;;;;9.60;99.90;;;;;;5094410;28;19924;-60
2022/03/25 08:09:20;;;;;;;;;;;9.70;99.90;;;;;;5093884;28;19925;-60
2022/03/25 08:11:46;;;;;;;;;;;9.90;99.90;;;;;;5112509;28;20293;-61
2022/03/25 08:14:12;;;;;;;;;;;10.00;99.90;;;;;;5103392;28;19965;-60
2022/03/25 08:16:38;;;;;;;;;;;10.10;99.90;;;;;;5108747;28;20377;-61
2022/03/25 08:19:05;;;;;;;;;;;10.20;99.90;;;;;;5113558;28;19924;-61
2022/03/25 08:21:31;;;;;;;;;;;10.70;99.90;;;;;;5112003;28;19924;-60
2022/03/25 08:29:25;;;;;;;;;;;10.60;99.90;;;;;;5083399;28;19924;-58
2022/03/25 08:31:51;;;;;;;;;;;10.70;99.90;;;;;;5092394;28;19954;-58
2022/03/25 08:34:17;;;;;;;;;;;10.70;99.90;;;;;;5074349;28;19925;-58
2022/03/25 08:36:44;;;;;;;;;;;10.80;99.90;;;;;;5073345;28;19994;-58
2022/03/25 08:39:09;;;;;;;;;;;11.00;99.90;;;;;;5071195;28;20310;-58
2022/03/25 08:41:35;;;;;;;;;;;11.20;99.90;;;;;;5091069;28;19924;-58
2022/03/25 08:44:01;;;;;;;;;;;11.40;99.90;;;;;;5093786;28;19931;-58
2022/03/25 08:46:26;;;;;;;;;;;11.30;99.90;;;;;;5091678;28;19969;-58
2022/03/25 08:48:52;;;;;;;;;;;11.40;99.90;;;;;;5086801;28;19947;-58
2022/03/25 08:51:18;;;;;;;;;;;11.40;99.90;;;;;;5078927;28;20293;-58
2022/03/25 08:53:43;;;;;;;;;;;11.40;99.90;;;;;;5081662;28;19932;-58
2022/03/25 08:56:10;;;;;;;;;;;11.40;99.90;;;;;;5076067;28;19931;-58
2022/03/25 08:58:36;;;;;;;;;;;11.40;99.90;;;;;;5083624;28;20028;-60
2022/03/25 09:01:01;;;;;;;;;;;11.50;99.90;;;;;;5072336;28;20069;-60
2022/03/25 09:03:27;;;;;;;;;;;11.50;99.90;;;;;;5086752;28;20294;-60
2022/03/25 09:05:53;;;;;;;;;;;11.70;99.90;;;;;;5090549;28;19924;-59
2022/03/25 09:08:18;;;;;;;;;;;11.80;99.90;;;;;;5090629;28;19924;-59
2022/03/25 09:10:44;;;;;;;;;;;11.90;99.90;;;;;;5099176;28;19923;-60
2022/03/25 09:13:11;;;;;;;;;;;12.00;99.90;;;;;;5113628;28;20024;-60
2022/03/25 09:15:37;;;;;;;;;;;;;;;;;;5103855;28;19925;-60
2022/03/25 09:18:03;;;;;;;;;;;12.30;99.90;;;;;;5093370;28;19928;-60
2022/03/25 09:20:29;;;;;;;;;;;12.30;99.90;;;;;;5093363;28;20022;-60
2022/03/25 09:22:54;;;;;;;;;;;12.80;99.90;;;;;;5090756;28;20351;-60
2022/03/25 09:25:23;;;;;;;;;;;12.80;99.90;;;;;;5092965;28;19928;-60
2022/03/25 09:27:49;;;;;;;;;;;13.10;99.90;;;;;;5095555;28;19978;-60
2022/03/25 09:30:15;;;;;;;;;;;12.90;99.90;;;;;;5095863;28;19924;-60
2022/03/25 09:32:41;;;;;;;;;;;13.50;99.90;;;;;;5088965;28;19939;-60
2022/03/25 09:35:10;;;;;;;;;;;13.00;99.90;;;;;;5086871;28;19924;-60
2022/03/25 09:37:45;;;;;;;;;;;13.20;99.90;;;;;;5089787;28;20370;-60
2022/03/25 09:40:14;;;;;;;;;;;13.20;99.90;;;;;;5097276;28;19924;-60
2022/03/25 09:42:40;;;;;;;;;;;13.40;99.90;;;;;;5094756;28;19950;-60
2022/03/25 09:45:07;;;;;;;;;;;13.40;99.90;;;;;;5095563;28;19928;-60
2022/03/25 09:47:33;;;;;;;;;;;13.70;99.90;;;;;;5091255;28;19975;-60
2022/03/25 09:49:59;;;;;;;;;;;13.90;99.90;;;;;;5085125;28;19983;-60
2022/03/25 09:52:28;;;;;;;;;;;14.30;99.90;;;;;;5092590;28;20389;-60
2022/03/25 09:54:53;;;;;;;;;;;14.20;99.90;;;;;;5097147;28;20366;-60
2022/03/25 09:57:19;;;;;;;;;;;14.20;99.90;;;;;;5096126;28;19924;-60
2022/03/25 09:59:45;;;;;;;;;;;14.30;99.90;;;;;;5094819;28;19924;-60
2022/03/25 10:02:10;;;;;;;;;;;14.50;99.90;;;;;;5096772;28;20010;-60
2022/03/25 10:04:37;;;;;;;;;;;14.70;99.90;;;;;;5095983;28;19924;-60
2022/03/25 10:07:22;;;;;;;;;;;14.70;99.80;;;;;;5096171;28;19981;-60
2022/03/25 10:09:49;;;;;;;;;;;14.80;99.60;;;;;;5095847;28;19975;-60
2022/03/25 10:12:18;;;;;;;;;;;15.00;99.90;;;;;;5095241;28;19924;-60
2022/03/25 10:14:46;;;;;;;;;;;15.20;99.90;;;;;;5084808;28;19933;-60
2022/03/25 10:17:12;;;;;;;;;;;15.40;98.40;;;;;;5091424;28;19936;-61
2022/03/25 10:19:46;;;;;;;;;;;15.70;97.30;;;;;;5085412;28;19937;-60
2022/03/25 10:22:14;;;;;;;;;;;16.00;94.40;;;;;;5088058;28;19924;-60
2022/03/25 10:24:48;;;;;;;;;;;16.70;91.50;;;;;;5095703;28;20320;-60
2022/03/25 10:27:15;;;;;;;;;;;17.40;92.60;;;;;;5095994;28;20399;-60
2022/03/25 10:29:42;;;;;;;;;;;18.00;79.60;;;;;;5096103;28;19966;-60
2022/03/25 10:32:09;;;;;;;;;;;18.70;80.00;;;;;;5095360;28;19928;-60
2022/03/25 10:34:37;;;;;;;;;;;19.40;74.80;;;;;;5128708;27;20016;-60
2022/03/25 10:37:04;;;;;;;;;;;19.80;70.20;;;;;;5095852;28;19924;-60
2022/03/25 10:39:31;;;;;;;;;;;20.20;63.10;;;;;;5094647;28;19977;-60
2022/03/25 10:41:57;;;;;;;;;;;20.80;62.80;;;;;;5095854;28;20023;-60
2022/03/25 10:44:41;;;;;;;;;;;21.40;59.70;;;;;;5095380;28;19924;-60
2022/03/25 10:47:16;;;;;;;;;;;21.70;58.60;;;;;;5095322;28;20429;-61
2022/03/25 10:49:43;;;;;;;;;;;22.30;57.10;;;;;;5095970;28;19924;-61
2022/03/25 10:52:22;;;;;;;;;;;22.50;53.90;;;;;;5095431;28;19930;-61
2022/03/25 10:54:47;;;;;;;;;;;23.00;54.90;;;;;;5091323;28;20377;-61
2022/03/25 10:57:15;;;;;;;;;;;22.90;47.30;;;;;;5075624;28;20011;-61
2022/03/25 10:59:40;;;;;;;;;;;22.70;50.10;;;;;;5074560;28;20362;-60
2022/03/25 11:02:07;;;;;;;;;;;22.90;50.70;;;;;;5083591;28;19931;-61
2022/03/25 11:04:33;;;;;;;;;;;23.20;49.00;;;;;;5095508;28;20348;-61
2022/03/25 11:07:01;;;;;;;;;;;23.40;50.80;;;;;;5094630;28;19924;-61
2022/03/25 11:09:27;;;;;;;;;;;23.50;49.80;;;;;;5095214;28;19930;-61
2022/03/25 11:11:53;;;;;;;;;;;23.30;51.00;;;;;;5088770;28;20379;-60
2022/03/25 11:14:19;;;;;;;;;;;23.40;49.00;;;;;;5082834;28;19928;-61
2022/03/25 11:16:47;;;;;;;;;;;23.50;48.10;;;;;;5111495;28;19923;-61
2022/03/25 11:19:13;;;;;;;;;;;23.60;47.60;;;;;;5111807;27;19928;-61
2022/03/25 11:21:40;;;;;;;;;;;24.00;47.20;;;;;;5094257;28;19924;-61
2022/03/25 11:24:07;;;;;;;;;;;24.40;49.00;;;;;;5094911;28;19927;-61
2022/03/25 11:26:36;;;;;;;;;;;24.00;48.20;;;;;;5093864;28;19930;-61
2022/03/25 11:29:06;;;;;;;;;;;23.70;47.20;;;;;;5093680;28;20406;-61
2022/03/25 11:31:51;;;;;;;;;;;24.20;46.80;;;;;;5094063;28;19986;-61
2022/03/25 11:34:22;;;;;;;;;;;24.60;48.30;;;;;;5076269;28;19947;-61
2022/03/25 11:37:07;;;;;;;;;;;24.60;47.00;;;;;;5076115;28;19924;-61
2022/03/25 11:39:35;;;;;;;;;;;23.90;47.60;;;;;;5094270;28;20014;-61
2022/03/25 11:42:02;;;;;;;;;;;23.80;48.50;;;;;;5093947;28;19924;-61
2022/03/25 11:44:29;;;;;;;;;;;23.80;47.50;;;;;;5094972;28;20057;-61
2022/03/25 11:46:58;;;;;;;;;;;24.30;47.10;;;;;;5094211;28;20402;-61
2022/03/25 11:49:24;;;;;;;;;;;24.30;45.80;;;;;;5094120;28;20275;-61
2022/03/25 11:51:49;;;;;;;;;;;23.60;46.40;;;;;;5093516;28;19931;-61
2022/03/25 11:54:34;;;;;;;;;;;23.70;47.50;;;;;;5093354;28;20378;-61
2022/03/25 11:57:02;;;;;;;;;;;23.80;46.80;;;;;;5093872;28;19920;-61
2022/03/25 11:59:45;;;;;;;;;;;23.90;45.90;;;;;;5094109;28;20062;-61
2022/03/25 12:02:22;;;;;;;;;;;24.00;44.90;;;;;;5093211;28;19924;-61
2022/03/25 12:04:48;;;;;;;;;;;23.90;44.30;;;;;;5092151;28;19923;-61
2022/03/25 12:07:16;;;;;;;;;;;24.30;44.20;;;;;;5094103;28;20010;-61
2022/03/25 12:09:44;;;;;;;;;;;24.70;43.60;;;;;;5090240;28;19928;-61
2022/03/25 12:12:10;;;;;;;;;;;24.30;42.20;;;;;;5085637;28;19925;-61
2022/03/25 12:14:56;;;;;;;;;;;24.50;42.90;;;;;;5081054;28;20019;-61
2022/03/25 12:17:22;;;;;;;;;;;24.90;42.00;;;;;;5073104;28;19949;-61
2022/03/25 12:19:51;;;;;;;;;;;25.10;41.60;;;;;;5072176;28;19925;-61
2022/03/25 12:22:23;;;;;;;;;;;24.80;41.00;;;;;;5086620;28;20379;-61
2022/03/25 12:24:50;;;;;;;;;;;25.00;40.80;;;;;;5093490;28;19924;-62
2022/03/25 12:27:16;;;;;;;;;;;25.10;38.60;;;;;;5092004;28;20293;-62
2022/03/25 12:29:42;;;;;;;;;;;24.50;38.80;;;;;;5081289;28;19924;-61
2022/03/25 12:32:13;;;;;;;;;;;24.50;38.10;;;;;;5091752;28;19928;-61
2022/03/25 12:34:41;;;;;;;;;;;24.10;37.40;;;;;;5073338;28;19978;-61
2022/03/25 12:37:09;;;;;;;;;;;23.90;37.90;;;;;;5072161;28;20015;-61
2022/03/25 12:39:35;;;;;;;;;;;23.60;36.80;;;;;;5079082;28;19924;-62
2022/03/25 12:42:09;;;;;;;;;;;23.80;37.30;;;;;;5090942;28;19993;-61
2022/03/25 12:44:35;;;;;;;;;;;24.10;36.00;;;;;;5092415;28;20011;-61
2022/03/25 12:47:01;;;;;;;;;;;24.30;36.50;;;;;;5093037;28;20027;-61
2022/03/25 12:49:28;;;;;;;;;;;24.20;34.90;;;;;;5092902;28;19924;-61
2022/03/25 12:51:54;;;;;;;;;;;24.20;36.60;;;;;;5108454;28;19927;-61
2022/03/25 12:54:20;;;;;;;;;;;24.20;36.20;;;;;;5091583;28;19946;-62
2022/03/25 12:56:54;;;;;;;;;;;24.40;35.80;;;;;;5092928;28;19920;-62
2022/03/25 12:59:26;;;;;;;;;;;24.10;36.00;;;;;;5092483;28;20457;-61
2022/03/25 13:01:52;;;;;;;;;;;23.60;36.00;;;;;;5093064;28;19963;-62
2022/03/25 13:04:26;;;;;;;;;;;24.20;36.00;;;;;;5092005;28;19970;-62
2022/03/25 13:06:56;;;;;;;;;;;24.30;34.40;;;;;;5092533;28;19924;-62
2022/03/25 13:09:22;;;;;;;;;;;24.70;34.50;;;;;;5093314;28;19928;-62
2022/03/25 13:12:02;;;;;;;;;;;24.90;32.80;;;;;;5107846;28;19927;-62
2022/03/25 13:14:28;;;;;;;;;;;25.00;34.00;;;;;;5106913;28;19920;-62
2022/03/25 13:16:54;;;;;;;;;;;24.60;32.90;;;;;;5111321;28;20305;-61
2022/03/25 13:19:32;;;;;;;;;;;24.10;32.40;;;;;;5113363;28;19931;-62
2022/03/25 13:22:14;;;;;;;;;;;23.90;34.00;;;;;;5112738;28;19946;-62
2022/03/25 13:24:53;;;;;;;;;;;24.30;34.10;;;;;;5096417;28;20362;-62
2022/03/25 13:27:19;;;;;;;;;;;24.70;33.10;;;;;;5091192;28;20403;-62
2022/03/25 13:29:45;;;;;;;;;;;24.40;33.40;;;;;;5093127;28;19999;-62
2022/03/25 13:32:11;;;;;;;;;;;24.30;34.60;;;;;;5092099;28;19931;-62
2022/03/25 13:34:37;;;;;;;;;;;24.10;35.50;;;;;;5072177;28;20393;-62
2022/03/25 13:37:03;;;;;;;;;;;24.20;35.30;;;;;;5072867;28;19925;-62
2022/03/25 13:39:31;;;;;;;;;;;24.50;35.80;;;;;;5071448;28;20421;-62
2022/03/25 13:42:00;;;;;;;;;;;25.00;35.40;;;;;;5084854;28;19931;-62
2022/03/25 13:44:26;;;;;;;;;;;25.40;35.60;;;;;;5093151;28;19924;-62
2022/03/25 13:46:55;;;;;;;;;;;24.90;34.80;;;;;;5093044;28;19931;-62
2022/03/25 13:49:22;;;;;;;;;;;24.80;34.70;;;;;;5091551;28;19924;-62
2022/03/25 13:51:47;;;;;;;;;;;24.50;35.10;;;;;;5092844;28;19924;-62
2022/03/25 13:54:13;;;;;;;;;;;24.30;35.60;;;;;;5092999;28;19928;-62
2022/03/25 13:56:40;;;;;;;;;;;24.00;36.30;;;;;;5090394;28;19924;-62
2022/03/25 13:59:07;;;;;;;;;;;23.70;35.90;;;;;;5092470;28;19963;-62
2022/03/25 14:01:40;;;;;;;;;;;23.40;37.60;;;;;;5092894;28;20011;-62
2022/03/25 14:04:09;;;;;;;;;;;23.50;37.70;;;;;;5091758;28;19967;-62
2022/03/25 14:06:36;;;;;;;;;;;24.00;37.40;;;;;;5074512;28;19924;-62
2022/03/25 14:09:02;;;;;;;;;;;23.70;37.30;;;;;;5092558;28;20310;-62
2022/03/25 14:11:34;;;;;;;;;;;23.10;37.60;;;;;;5103690;28;19924;-62
2022/03/25 14:14:00;;;;;;;;;;;23.10;37.50;;;;;;5114545;28;20018;-62
2022/03/25 14:16:30;;;;;;;;;;;23.10;36.50;;;;;;5101423;28;19924;-62
2022/03/25 14:18:57;;;;;;;;;;;22.80;35.90;;;;;;5094586;28;19924;-62
2022/03/25 14:21:29;;;;;;;;;;;22.60;36.90;;;;;;5096493;28;20309;-62
2022/03/25 14:26:40;;;;;;;;;;;23.60;37.20;;;;;;5095836;28;20014;-63
2022/03/25 14:29:08;;;;;;;;;;;23.30;37.10;;;;;;5096457;28;19964;-62
2022/03/25 14:31:34;;;;;;;;;;;23.10;38.30;;;;;;5095568;28;20298;-62